Time;durP1;ratioP1;P1;durP2;ratioP2;P2;SDS_P1;SDS_P2;PMS_P1;PMS_P2;Temp;Humidity;BMP_temperature;BMP_pressure;BME280_temperature;BME280_humidity;BME280_pressure;Samples;Min_cycle;Max_cycle;Signal;HPM_P1;HPM_P2
2021/08/17 00:01:06;;;;;;;5.50;2.77;;;13.60;99.90;;;;;;5080621;28;20413;-75
2021/08/17 00:03:32;;;;;;;3.73;2.73;;;13.60;99.90;;;;;;5072984;28;20171;-75
2021/08/17 00:06:00;;;;;;;5.00;3.13;;;13.60;99.90;;;;;;5073237;28;20168;-75
2021/08/17 00:08:25;;;;;;;6.13;3.03;;;13.60;99.90;;;;;;5073963;28;20544;-75
2021/08/17 00:10:51;;;;;;;4.00;2.20;;;13.60;99.90;;;;;;5093115;28;20397;-75
2021/08/17 00:13:16;;;;;;;6.70;2.77;;;13.60;99.90;;;;;;5093421;28;20183;-75
2021/08/17 00:15:42;;;;;;;3.93;2.23;;;13.60;99.90;;;;;;5093723;28;20639;-75
2021/08/17 00:18:07;;;;;;;4.50;2.77;;;13.60;99.90;;;;;;5091753;28;20194;-75
2021/08/17 00:20:33;;;;;;;4.47;3.10;;;13.60;99.90;;;;;;5093690;28;20151;-75
2021/08/17 00:22:59;;;;;;;4.80;2.70;;;13.60;99.90;;;;;;5093645;28;20616;-75
2021/08/17 00:25:24;;;;;;;4.60;2.70;;;13.60;99.90;;;;;;5093048;28;20163;-75
2021/08/17 00:27:50;;;;;;;9.33;3.57;;;13.60;99.90;;;;;;5093510;28;20191;-75
2021/08/17 00:30:15;;;;;;;6.10;4.07;;;13.60;99.90;;;;;;5093201;28;20654;-75
2021/08/17 00:32:41;;;;;;;5.30;2.60;;;13.60;99.90;;;;;;5092860;28;20194;-75
2021/08/17 00:35:07;;;;;;;6.47;3.10;;;13.60;99.90;;;;;;5092017;28;20174;-75
2021/08/17 00:37:33;;;;;;;4.20;2.13;;;13.60;99.90;;;;;;5093189;28;20173;-75
2021/08/17 00:39:59;;;;;;;5.03;2.70;;;13.50;99.90;;;;;;5093295;28;20389;-75
2021/08/17 00:42:25;;;;;;;5.87;2.40;;;13.50;99.90;;;;;;5093791;28;20530;-75
2021/08/17 00:44:51;;;;;;;5.53;2.97;;;13.50;99.90;;;;;;5092844;28;20397;-75
2021/08/17 00:47:17;;;;;;;8.20;3.60;;;13.50;99.90;;;;;;5092616;28;20183;-75
2021/08/17 00:49:44;;;;;;;5.10;3.40;;;13.50;99.90;;;;;;5093255;28;20400;-75
2021/08/17 00:52:11;;;;;;;5.90;2.90;;;13.40;99.90;;;;;;5091487;28;20587;-75
2021/08/17 00:54:38;;;;;;;4.30;2.80;;;13.30;99.90;;;;;;5093186;28;20385;-75
2021/08/17 00:57:04;;;;;;;4.80;3.27;;;13.30;99.90;;;;;;5093654;28;20397;-75
2021/08/17 00:59:32;;;;;;;8.90;3.00;;;13.30;99.90;;;;;;5093235;28;20733;-75
2021/08/17 01:01:57;;;;;;;6.47;4.10;;;13.20;99.90;;;;;;5092441;28;20155;-75
2021/08/17 01:04:23;;;;;;;8.23;3.67;;;13.20;99.90;;;;;;5092572;28;20396;-75
2021/08/17 01:06:49;;;;;;;4.97;2.93;;;13.10;99.90;;;;;;5092925;28;20155;-75
2021/08/17 01:09:14;;;;;;;7.10;3.40;;;13.10;99.90;;;;;;5077376;28;20237;-75
2021/08/17 01:11:46;;;;;;;6.13;3.20;;;13.10;99.90;;;;;;5072684;28;20414;-75
2021/08/17 01:14:17;;;;;;;5.57;3.50;;;13.00;99.90;;;;;;5072554;28;20156;-75
2021/08/17 01:16:43;;;;;;;7.63;3.63;;;13.00;99.90;;;;;;5073305;28;20406;-75
2021/08/17 01:19:13;;;;;;;6.10;3.80;;;12.90;99.90;;;;;;5072432;28;20782;-75
2021/08/17 01:21:39;;;;;;;8.67;4.60;;;12.90;99.90;;;;;;5072255;28;20205;-75
2021/08/17 01:24:05;;;;;;;8.13;3.77;;;12.90;99.90;;;;;;5072350;28;20978;-75
2021/08/17 01:26:31;;;;;;;9.03;5.17;;;12.80;99.90;;;;;;5073821;28;20773;-75
2021/08/17 01:28:57;;;;;;;6.10;4.33;;;12.80;99.90;;;;;;5072248;28;20194;-75
2021/08/17 01:31:24;;;;;;;12.57;4.87;;;12.80;99.90;;;;;;5072033;28;20152;-75
2021/08/17 01:33:50;;;;;;;11.40;5.07;;;12.80;99.90;;;;;;5072523;28;20938;-75
2021/08/17 01:36:16;;;;;;;8.13;4.37;;;12.80;99.90;;;;;;5072056;28;20386;-75
2021/08/17 01:38:50;;;;;;;9.50;4.97;;;12.80;99.90;;;;;;5072787;28;20771;-75
2021/08/17 01:41:17;;;;;;;9.80;5.67;;;12.80;99.90;;;;;;5072624;28;20159;-75
2021/08/17 01:43:44;;;;;;;10.23;5.13;;;12.80;99.90;;;;;;5073023;28;20443;-75
2021/08/17 01:46:11;;;;;;;9.03;6.23;;;12.80;99.90;;;;;;5072556;28;20947;-75
2021/08/17 01:48:37;;;;;;;9.80;6.17;;;12.80;99.90;;;;;;5071639;28;20864;-75
2021/08/17 01:51:03;;;;;;;13.00;7.10;;;12.80;99.90;;;;;;5072383;28;20409;-75
2021/08/17 01:53:30;;;;;;;10.87;5.70;;;12.80;99.90;;;;;;5072733;28;20402;-75
2021/08/17 01:55:58;;;;;;;15.80;8.20;;;12.90;99.90;;;;;;5074755;28;20406;-75
2021/08/17 01:58:26;;;;;;;12.93;7.87;;;12.90;99.90;;;;;;5076249;28;20488;-75
2021/08/17 02:00:53;;;;;;;12.00;7.00;;;12.90;99.90;;;;;;5094710;28;20435;-75
2021/08/17 02:03:18;;;;;;;13.73;7.10;;;13.00;99.90;;;;;;5095882;28;20446;-75
2021/08/17 02:05:44;;;;;;;14.67;8.53;;;13.00;99.90;;;;;;5095729;28;20423;-75
2021/08/17 02:08:10;;;;;;;13.13;7.50;;;13.00;99.90;;;;;;5089220;28;20221;-75
2021/08/17 02:10:37;;;;;;;13.27;7.37;;;13.00;99.90;;;;;;5075279;28;20382;-75
2021/08/17 02:13:04;;;;;;;18.50;7.60;;;13.10;99.90;;;;;;5075566;28;20605;-75
2021/08/17 02:15:29;;;;;;;15.73;7.83;;;13.10;99.90;;;;;;5076211;28;20394;-75
2021/08/17 02:17:55;;;;;;;14.50;8.20;;;13.20;99.90;;;;;;5076360;28;20467;-75
2021/08/17 02:20:21;;;;;;;18.10;8.40;;;13.20;99.90;;;;;;5075337;28;20209;-75
2021/08/17 02:22:47;;;;;;;17.20;9.70;;;13.30;99.90;;;;;;5075730;28;20247;-75
2021/08/17 02:25:13;;;;;;;17.67;9.57;;;13.30;99.90;;;;;;5075473;28;20592;-75
2021/08/17 02:27:39;;;;;;;20.97;11.63;;;13.30;99.90;;;;;;5074994;28;20448;-75
2021/08/17 02:30:05;;;;;;;24.57;10.40;;;13.30;99.90;;;;;;5075282;28;20751;-75
2021/08/17 02:32:32;;;;;;;21.07;9.10;;;13.40;99.90;;;;;;5075860;28;20179;-75
2021/08/17 02:34:58;;;;;;;19.93;9.90;;;13.40;99.90;;;;;;5076165;28;20410;-75
2021/08/17 02:37:24;;;;;;;18.63;9.63;;;13.40;99.90;;;;;;5075156;28;20390;-75
2021/08/17 02:39:50;;;;;;;22.63;9.87;;;13.40;99.90;;;;;;5074866;28;20397;-75
2021/08/17 02:42:15;;;;;;;16.40;9.60;;;13.50;99.90;;;;;;5075282;28;20172;-75
2021/08/17 02:44:41;;;;;;;20.13;11.07;;;13.50;99.90;;;;;;5074718;28;20394;-75
2021/08/17 02:47:07;;;;;;;21.83;11.30;;;13.50;99.90;;;;;;5074670;28;20394;-75
2021/08/17 02:49:33;;;;;;;21.83;13.53;;;13.50;99.90;;;;;;5075543;28;20189;-75
2021/08/17 02:52:04;;;;;;;25.87;12.97;;;13.50;99.90;;;;;;5075746;28;20493;-75
2021/08/17 02:54:31;;;;;;;18.17;11.37;;;13.50;99.90;;;;;;5075101;28;20148;-75
2021/08/17 02:56:56;;;;;;;25.37;11.97;;;13.50;99.90;;;;;;5075118;28;20761;-75
2021/08/17 02:59:22;;;;;;;28.77;12.43;;;13.60;99.90;;;;;;5074826;28;20386;-75
2021/08/17 03:01:47;;;;;;;24.17;12.33;;;13.60;99.90;;;;;;5074676;28;20258;-75
2021/08/17 03:04:13;;;;;;;24.30;13.80;;;13.60;99.90;;;;;;5074578;28;20243;-75
2021/08/17 03:06:38;;;;;;;25.57;12.97;;;13.60;99.90;;;;;;5074986;28;20225;-75
2021/08/17 03:09:04;;;;;;;28.43;14.83;;;13.60;99.90;;;;;;5075004;28;20191;-75
2021/08/17 03:11:29;;;;;;;20.83;13.10;;;13.60;99.90;;;;;;5074237;28;20195;-75
2021/08/17 03:13:57;;;;;;;30.87;13.67;;;13.70;99.90;;;;;;5074150;28;20155;-75
2021/08/17 03:16:23;;;;;;;22.20;12.03;;;13.60;99.90;;;;;;5074246;28;20163;-75
2021/08/17 03:18:49;;;;;;;23.17;12.97;;;13.70;99.90;;;;;;5074160;28;20802;-75
2021/08/17 03:21:14;;;;;;;20.57;11.53;;;13.70;99.90;;;;;;5074090;28;20447;-75
2021/08/17 03:23:41;;;;;;;32.10;14.50;;;13.70;99.90;;;;;;5075108;28;20535;-75
2021/08/17 03:26:07;;;;;;;26.97;15.10;;;13.80;99.90;;;;;;5073962;28;20228;-75
2021/08/17 03:28:33;;;;;;;26.47;14.00;;;13.80;99.90;;;;;;5073903;28;20438;-75
2021/08/17 03:30:59;;;;;;;25.80;13.47;;;13.80;99.90;;;;;;5073700;28;20397;-75
2021/08/17 03:33:24;;;;;;;26.13;14.03;;;13.80;99.90;;;;;;5073708;28;20238;-75
2021/08/17 03:35:50;;;;;;;27.57;13.03;;;13.80;99.90;;;;;;5073669;28;20518;-75
2021/08/17 03:38:16;;;;;;;23.30;13.13;;;13.80;99.90;;;;;;5073522;28;20177;-75
2021/08/17 03:40:41;;;;;;;22.97;13.63;;;13.80;99.90;;;;;;5074743;28;20186;-75
2021/08/17 03:43:07;;;;;;;31.57;14.40;;;13.80;99.90;;;;;;5073952;28;20412;-75
2021/08/17 03:45:33;;;;;;;23.90;13.43;;;13.80;99.90;;;;;;5073696;28;20192;-75
2021/08/17 03:47:58;;;;;;;30.53;16.60;;;13.80;99.90;;;;;;5074012;28;20211;-75
2021/08/17 03:50:24;;;;;;;24.43;14.30;;;13.80;99.90;;;;;;5073746;28;20164;-75
2021/08/17 03:52:50;;;;;;;26.63;14.33;;;13.80;99.90;;;;;;5073758;28;20624;-75
2021/08/17 03:55:15;;;;;;;26.50;13.13;;;13.80;99.90;;;;;;5073450;28;20156;-75
2021/08/17 03:57:41;;;;;;;20.70;12.17;;;13.90;99.90;;;;;;5074076;28;20183;-75
2021/08/17 04:00:09;;;;;;;27.37;12.80;;;13.90;99.90;;;;;;5073566;28;20594;-75
2021/08/17 04:02:34;;;;;;;26.57;12.97;;;13.90;99.90;;;;;;5073891;28;20174;-75
2021/08/17 04:05:00;;;;;;;23.60;12.10;;;13.90;99.90;;;;;;5073300;28;20482;-75
2021/08/17 04:07:26;;;;;;;21.63;12.50;;;13.90;99.90;;;;;;5072885;28;20181;-75
2021/08/17 04:09:51;;;;;;;28.57;12.60;;;13.90;99.90;;;;;;5073479;28;20155;-75
2021/08/17 04:12:17;;;;;;;22.53;11.87;;;13.90;99.90;;;;;;5073456;28;20162;-75
2021/08/17 04:14:42;;;;;;;25.73;11.97;;;13.90;99.90;;;;;;5074382;28;20539;-75
2021/08/17 04:17:08;;;;;;;28.00;12.17;;;13.90;99.90;;;;;;5073085;28;20157;-74
2021/08/17 04:19:38;;;;;;;22.90;13.60;;;13.90;99.90;;;;;;5072357;28;20153;-74
2021/08/17 04:22:04;;;;;;;27.07;14.30;;;13.90;99.90;;;;;;5072906;28;20161;-74
2021/08/17 04:24:30;;;;;;;27.87;12.90;;;13.80;99.90;;;;;;5072580;28;20398;-74
2021/08/17 04:26:55;;;;;;;22.80;12.83;;;13.80;99.90;;;;;;5073373;28;20956;-75
2021/08/17 04:29:21;;;;;;;20.90;10.30;;;13.80;99.90;;;;;;5072877;28;20532;-75
2021/08/17 04:31:46;;;;;;;19.17;11.27;;;13.80;99.90;;;;;;5075415;28;20188;-75
2021/08/17 04:34:12;;;;;;;31.60;13.37;;;13.80;99.90;;;;;;5083960;28;20212;-75
2021/08/17 04:36:37;;;;;;;28.13;13.37;;;13.80;99.90;;;;;;5089612;28;20249;-75
2021/08/17 04:39:03;;;;;;;24.50;12.20;;;13.80;99.90;;;;;;5077320;28;20654;-74
2021/08/17 04:41:29;;;;;;;23.73;12.17;;;13.80;99.90;;;;;;5085261;28;20253;-74
2021/08/17 04:43:54;;;;;;;19.73;10.50;;;13.90;99.90;;;;;;5081415;28;20203;-75
2021/08/17 04:46:20;;;;;;;22.10;12.10;;;13.90;99.90;;;;;;5077178;28;20204;-75
2021/08/17 04:48:47;;;;;;;25.80;14.67;;;13.90;99.90;;;;;;5070878;28;20252;-75
2021/08/17 04:51:12;;;;;;;24.30;14.90;;;13.90;99.90;;;;;;5073760;28;20202;-75
2021/08/17 04:53:38;;;;;;;29.13;13.10;;;13.90;99.90;;;;;;5079680;28;20461;-75
2021/08/17 04:56:04;;;;;;;22.70;11.80;;;13.90;99.90;;;;;;5075162;28;20181;-75
2021/08/17 04:58:30;;;;;;;30.60;15.03;;;13.90;99.90;;;;;;5075968;28;20655;-75
2021/08/17 05:00:55;;;;;;;26.87;14.90;;;13.90;99.90;;;;;;5086744;28;20406;-76
2021/08/17 05:03:23;;;;;;;26.97;12.97;;;13.90;99.90;;;;;;5086578;28;20188;-76
2021/08/17 05:05:48;;;;;;;27.07;14.33;;;13.90;99.90;;;;;;5084370;28;20545;-76
2021/08/17 05:08:14;;;;;;;24.13;13.50;;;14.00;99.90;;;;;;5076961;28;20449;-76
2021/08/17 05:10:39;;;;;;;27.07;14.43;;;14.00;99.90;;;;;;5073166;28;20168;-76
2021/08/17 05:13:05;;;;;;;24.43;15.27;;;14.00;99.90;;;;;;5073230;28;20672;-76
2021/08/17 05:15:31;;;;;;;25.63;13.77;;;14.00;99.90;;;;;;5072602;28;20608;-76
2021/08/17 05:17:57;;;;;;;30.87;15.33;;;14.00;99.90;;;;;;5072415;28;20215;-76
2021/08/17 05:20:23;;;;;;;28.53;15.97;;;14.10;99.90;;;;;;5072633;28;20400;-76
2021/08/17 05:22:49;;;;;;;26.83;15.77;;;14.10;99.90;;;;;;5074066;28;20511;-76
2021/08/17 05:25:15;;;;;;;26.20;14.07;;;14.20;99.90;;;;;;5072311;28;20474;-76
2021/08/17 05:27:42;;;;;;;27.03;14.57;;;14.30;99.90;;;;;;5072652;28;20271;-76
2021/08/17 05:30:08;;;;;;;28.23;13.70;;;14.40;99.90;;;;;;5073960;28;20444;-76
2021/08/17 05:32:33;;;;;;;29.17;15.50;;;14.50;99.90;;;;;;5078836;28;20816;-76
2021/08/17 05:34:59;;;;;;;25.50;13.80;;;14.60;99.90;;;;;;5080473;28;20419;-75
2021/08/17 05:37:24;;;;;;;25.27;13.63;;;14.60;99.90;;;;;;5084494;28;20189;-75
2021/08/17 05:39:50;;;;;;;25.47;13.50;;;14.70;99.90;;;;;;5086746;28;20255;-75
2021/08/17 05:42:16;;;;;;;22.40;14.17;;;14.70;99.90;;;;;;5076033;28;20167;-74
2021/08/17 05:44:43;;;;;;;28.93;13.93;;;14.70;99.90;;;;;;5076554;28;20232;-75
2021/08/17 05:47:10;;;;;;;23.90;15.13;;;14.70;99.90;;;;;;5076123;28;20179;-75
2021/08/17 05:49:37;;;;;;;29.30;14.73;;;14.80;99.90;;;;;;5076536;28;20460;-75
2021/08/17 05:52:08;;;;;;;24.43;14.87;;;14.80;99.90;;;;;;5087246;28;20478;-75
2021/08/17 05:54:34;;;;;;;21.53;12.80;;;14.80;99.90;;;;;;5096331;28;20779;-75
2021/08/17 05:56:59;;;;;;;25.10;13.40;;;14.80;99.90;;;;;;5092007;28;20411;-75
2021/08/17 05:59:26;;;;;;;20.93;11.13;;;14.80;99.90;;;;;;5080347;28;20272;-75
2021/08/17 06:01:53;;;;;;;26.07;12.73;;;14.80;99.90;;;;;;5076332;28;20182;-75
2021/08/17 06:04:19;;;;;;;29.63;15.03;;;14.80;99.90;;;;;;5079292;28;20509;-75
2021/08/17 06:06:46;;;;;;;24.07;13.50;;;14.80;99.90;;;;;;5089175;28;20510;-75
2021/08/17 06:09:11;;;;;;;25.43;12.43;;;14.90;99.90;;;;;;5089572;28;20192;-75
2021/08/17 06:11:37;;;;;;;22.40;13.77;;;14.90;99.90;;;;;;5074624;28;20761;-74
2021/08/17 06:14:03;;;;;;;28.70;13.90;;;14.90;99.90;;;;;;5079751;28;20222;-74
2021/08/17 06:16:28;;;;;;;24.30;14.70;;;15.00;99.90;;;;;;5088341;28;20188;-74
2021/08/17 06:18:54;;;;;;;25.53;14.23;;;15.00;99.90;;;;;;5085189;28;20208;-74
2021/08/17 06:21:20;;;;;;;25.70;14.20;;;15.00;99.90;;;;;;5086417;28;20162;-74
2021/08/17 06:23:46;;;;;;;23.20;13.97;;;15.00;99.90;;;;;;5083995;28;20812;-74
2021/08/17 06:26:11;;;;;;;21.23;12.73;;;15.10;99.90;;;;;;5084140;28;20185;-74
2021/08/17 06:28:37;;;;;;;23.30;12.30;;;15.10;99.90;;;;;;5083927;28;20552;-74
2021/08/17 06:31:03;;;;;;;23.77;13.60;;;15.10;99.90;;;;;;5084290;28;20206;-74
2021/08/17 06:33:28;;;;;;;24.73;15.00;;;15.20;99.90;;;;;;5077865;28;20334;-74
2021/08/17 06:35:54;;;;;;;32.33;14.93;;;15.20;99.90;;;;;;5077527;28;20294;-74
2021/08/17 06:38:19;;;;;;;33.57;16.03;;;15.30;99.90;;;;;;5081121;28;20179;-75
2021/08/17 06:40:45;;;;;;;27.40;15.53;;;15.40;99.90;;;;;;5078145;28;20854;-75
2021/08/17 06:43:10;;;;;;;28.70;15.87;;;15.40;99.90;;;;;;5078047;28;20223;-74
2021/08/17 06:45:36;;;;;;;28.70;13.17;;;15.40;99.90;;;;;;5082508;28;20187;-74
2021/08/17 06:48:02;;;;;;;30.17;14.80;;;15.50;99.90;;;;;;5079186;28;20210;-74
2021/08/17 06:50:27;;;;;;;24.47;14.07;;;15.50;99.90;;;;;;5078980;28;20640;-74
2021/08/17 06:52:53;;;;;;;24.60;13.80;;;15.60;99.90;;;;;;5080377;28;20269;-74
2021/08/17 06:55:18;;;;;;;24.50;14.33;;;15.60;99.90;;;;;;5079713;28;20175;-75
2021/08/17 06:57:44;;;;;;;24.77;13.20;;;15.60;99.90;;;;;;5075196;28;20188;-74
2021/08/17 07:00:11;;;;;;;26.70;14.03;;;15.60;99.90;;;;;;5080377;28;20689;-75
2021/08/17 07:02:37;;;;;;;27.23;14.10;;;15.60;99.90;;;;;;5093859;28;20163;-74
2021/08/17 07:05:05;;;;;;;27.63;13.77;;;15.70;99.90;;;;;;5093731;28;20424;-75
2021/08/17 07:07:32;;;;;;;28.17;14.43;;;15.70;99.90;;;;;;5076228;28;20406;-74
2021/08/17 07:09:57;;;;;;;29.87;14.30;;;15.70;99.90;;;;;;5073184;28;20447;-75
2021/08/17 07:12:23;;;;;;;25.60;13.37;;;15.70;99.90;;;;;;5083482;28;20982;-74
2021/08/17 07:14:50;;;;;;;32.63;13.90;;;15.70;99.90;;;;;;5083628;28;20170;-74
2021/08/17 07:17:17;;;;;;;26.20;12.37;;;15.80;99.90;;;;;;5089998;28;20181;-74
2021/08/17 07:19:43;;;;;;;28.63;16.00;;;15.80;99.90;;;;;;5081552;28;20429;-74
2021/08/17 07:22:08;;;;;;;20.53;13.90;;;15.90;99.90;;;;;;5078179;28;20949;-75
2021/08/17 07:24:34;;;;;;;24.13;12.93;;;16.00;99.90;;;;;;5072448;28;20182;-75
2021/08/17 07:26:59;;;;;;;24.60;14.27;;;16.00;99.90;;;;;;5084197;28;20648;-74
2021/08/17 07:29:25;;;;;;;26.03;14.23;;;16.10;99.90;;;;;;5080182;28;20211;-74
2021/08/17 07:31:51;;;;;;;24.53;12.77;;;16.10;99.90;;;;;;5089238;28;20171;-74
2021/08/17 07:34:16;;;;;;;21.20;11.60;;;16.20;99.90;;;;;;5076960;28;20632;-74
2021/08/17 07:36:42;;;;;;;21.30;12.47;;;16.20;99.90;;;;;;5085846;28;20181;-74
2021/08/17 07:39:10;;;;;;;25.63;13.50;;;16.30;99.90;;;;;;5085108;28;20174;-74
2021/08/17 07:41:35;;;;;;;20.80;11.03;;;16.20;99.90;;;;;;5077759;28;20605;-74
2021/08/17 07:44:02;;;;;;;21.83;10.93;;;16.30;99.90;;;;;;5093194;28;20436;-74
2021/08/17 07:46:28;;;;;;;23.20;11.53;;;16.30;99.90;;;;;;5080671;28;20491;-74
2021/08/17 07:48:54;;;;;;;21.47;12.17;;;16.40;99.90;;;;;;5090937;28;20460;-74
2021/08/17 07:51:20;;;;;;;21.53;12.20;;;16.50;99.90;;;;;;5086850;28;20206;-74
2021/08/17 07:53:46;;;;;;;21.13;11.33;;;16.70;99.90;;;;;;5082866;28;20424;-74
2021/08/17 07:56:11;;;;;;;24.00;12.73;;;16.90;99.90;;;;;;5086842;28;20427;-74
2021/08/17 07:58:38;;;;;;;28.93;12.90;;;17.00;99.90;;;;;;5082827;28;20266;-74
2021/08/17 08:01:04;;;;;;;23.37;10.87;;;17.10;99.90;;;;;;5076134;28;20170;-74
2021/08/17 08:03:29;;;;;;;25.63;11.83;;;17.10;99.90;;;;;;5077090;28;20458;-74
2021/08/17 08:05:55;;;;;;;22.57;11.07;;;17.20;99.90;;;;;;5082518;28;20453;-74
2021/08/17 08:08:20;;;;;;;20.97;11.43;;;17.20;99.90;;;;;;5081536;28;20195;-74
2021/08/17 08:10:46;;;;;;;18.23;10.53;;;17.30;99.90;;;;;;5077647;28;20175;-75
2021/08/17 08:13:12;;;;;;;19.70;10.73;;;17.40;99.90;;;;;;5074926;28;20180;-75
2021/08/17 08:15:38;;;;;;;19.50;10.97;;;17.60;99.90;;;;;;5076947;28;20206;-75
2021/08/17 08:18:04;;;;;;;21.20;11.57;;;17.70;99.90;;;;;;5080780;28;20281;-75
2021/08/17 08:20:30;;;;;;;18.83;10.80;;;17.80;99.90;;;;;;5079994;28;20504;-75
2021/08/17 08:22:55;;;;;;;18.07;10.10;;;17.90;99.90;;;;;;5089397;28;20536;-74
2021/08/17 08:25:21;;;;;;;18.07;10.63;;;17.90;99.90;;;;;;5081521;28;20199;-74
2021/08/17 08:27:47;;;;;;;18.60;10.80;;;18.00;99.90;;;;;;5082591;28;20927;-74
2021/08/17 08:30:13;;;;;;;19.30;11.47;;;18.00;99.90;;;;;;5079843;28;20185;-74
2021/08/17 08:32:39;;;;;;;17.47;10.47;;;18.00;99.90;;;;;;5079834;28;20969;-75
2021/08/17 08:35:06;;;;;;;19.17;9.93;;;18.00;99.90;;;;;;5079502;28;20440;-75
2021/08/17 08:37:32;;;;;;;16.43;10.70;;;18.00;99.90;;;;;;5074790;28;20799;-74
2021/08/17 08:39:58;;;;;;;18.00;9.70;;;18.00;99.90;;;;;;5076464;28;20435;-74
2021/08/17 08:42:24;;;;;;;22.87;11.60;;;18.10;99.90;;;;;;5079188;28;20498;-75
2021/08/17 08:44:52;;;;;;;16.07;10.00;;;18.20;99.90;;;;;;5076648;28;20640;-74
2021/08/17 08:47:19;;;;;;;17.20;11.17;;;18.30;99.90;;;;;;5074119;28;20429;-75
2021/08/17 08:49:49;;;;;;;21.83;12.40;;;18.30;99.90;;;;;;5078250;28;20467;-75
2021/08/17 08:52:15;;;;;;;18.43;12.30;;;18.50;99.90;;;;;;5081861;28;20428;-75
2021/08/17 08:54:40;;;;;;;21.23;11.40;;;18.60;99.90;;;;;;5079002;28;20503;-74
2021/08/17 08:57:06;;;;;;;20.33;12.00;;;18.60;99.90;;;;;;5077769;28;20963;-75
2021/08/17 08:59:33;;;;;;;17.90;10.00;;;18.70;99.90;;;;;;5080255;28;20251;-75
2021/08/17 09:02:18;;;;;;;18.97;11.50;;;18.70;99.90;;;;;;5077413;28;20183;-75
2021/08/17 09:04:53;;;;;;;14.30;10.80;;;18.60;99.90;;;;;;5078735;28;20435;-75
2021/08/17 09:12:57;;;;;;;18.67;10.30;;;18.60;99.90;;;;;;5074142;28;20499;-71
2021/08/17 09:18:08;;;;;;;22.20;11.83;;;18.70;99.90;;;;;;5063413;28;20571;-70
2021/08/17 09:20:40;;;;;;;14.90;9.07;;;18.70;99.90;;;;;;5053975;28;20436;-70
2021/08/17 09:23:26;;;;;;;16.57;9.00;;;18.70;99.90;;;;;;5065357;28;20434;-70
2021/08/17 09:25:53;;;;;;;16.07;8.87;;;18.70;99.90;;;;;;5063840;28;20438;-70
2021/08/17 09:28:36;;;;;;;17.63;8.90;;;18.80;99.90;;;;;;5057798;28;20457;-71
2021/08/17 09:31:06;;;;;;;15.97;8.70;;;19.00;99.90;;;;;;5062921;28;20460;-71
2021/08/17 09:33:37;;;;;;;16.13;8.93;;;19.20;99.90;;;;;;5061200;28;20436;-70
2021/08/17 09:36:03;;;;;;;17.97;9.40;;;19.30;99.90;;;;;;5063657;28;20519;-70
2021/08/17 09:38:31;;;;;;;15.13;9.00;;;19.30;99.90;;;;;;5061386;28;20429;-70
2021/08/17 09:40:58;;;;;;;15.33;8.77;;;19.20;99.90;;;;;;5055974;28;20512;-70
2021/08/17 09:43:25;;;;;;;11.13;8.27;;;19.20;99.90;;;;;;5060774;28;20907;-70
2021/08/17 09:45:51;;;;;;;14.57;9.10;;;19.30;99.90;;;;;;5059723;28;20484;-70
2021/08/17 09:48:28;;;;;;;14.73;8.60;;;19.30;99.90;;;;;;5064331;28;20468;-70
2021/08/17 09:50:53;;;;;;;10.53;7.20;;;19.30;99.90;;;;;;5059920;28;20194;-70
2021/08/17 09:53:21;;;;;;;16.83;8.30;;;19.30;99.90;;;;;;5066314;28;20429;-71
2021/08/17 09:55:56;;;;;;;16.07;8.33;;;19.30;99.90;;;;;;5060219;28;20179;-70
2021/08/17 09:58:25;;;;;;;15.27;9.70;;;19.30;99.90;;;;;;5056896;28;20922;-71
2021/08/17 10:00:54;;;;;;;16.30;8.17;;;19.40;99.90;;;;;;5044317;28;20434;-71
2021/08/17 10:03:20;;;;;;;10.93;7.40;;;19.50;99.90;;;;;;5045905;28;20450;-71
2021/08/17 10:05:46;;;;;;;15.07;8.77;;;19.50;99.90;;;;;;5046240;28;20434;-72
2021/08/17 10:08:13;;;;;;;12.43;7.50;;;19.50;99.90;;;;;;5047240;28;20431;-71
2021/08/17 10:10:40;;;;;;;15.53;8.10;;;19.50;99.90;;;;;;5045403;28;20923;-71
2021/08/17 10:13:11;;;;;;;12.23;7.80;;;19.40;99.90;;;;;;5045176;28;20467;-71
2021/08/17 10:15:41;;;;;;;15.83;8.90;;;19.40;99.90;;;;;;5044561;28;20438;-71
2021/08/17 10:18:11;;;;;;;12.33;7.60;;;19.40;99.90;;;;;;5041485;28;20450;-71
2021/08/17 10:20:38;;;;;;;11.30;7.10;;;19.50;99.90;;;;;;5039924;28;20447;-70
2021/08/17 10:23:07;;;;;;;19.10;9.80;;;19.70;99.90;;;;;;5041273;28;20501;-70
2021/08/17 10:25:43;;;;;;;11.23;7.70;;;19.80;99.90;;;;;;5047040;28;20431;-70
2021/08/17 10:28:32;;;;;;;10.93;7.23;;;19.90;99.90;;;;;;5035508;28;20463;-71
2021/08/17 10:31:18;;;;;;;9.97;7.00;;;20.00;99.90;;;;;;5029623;28;20447;-71
2021/08/17 10:33:49;;;;;;;12.10;7.10;;;20.00;99.90;;;;;;5030771;28;20439;-71
2021/08/17 10:36:43;;;;;;;15.17;8.23;;;20.00;99.90;;;;;;5031427;28;20463;-71
2021/08/17 10:42:24;;;;;;;14.20;9.77;;;20.00;99.90;;;;;;5057832;28;20655;-71
2021/08/17 10:44:50;;;;;;;14.40;8.90;;;19.80;99.90;;;;;;5046296;28;20537;-71
2021/08/17 10:47:32;;;;;;;8.93;6.90;;;19.80;99.90;;;;;;5033920;28;20435;-71
2021/08/17 10:49:57;;;;;;;13.10;9.10;;;19.80;99.90;;;;;;5037709;28;20442;-71
2021/08/17 10:55:34;;;;;;;12.33;7.43;;;19.80;99.90;;;;;;5064195;28;20533;-70
2021/08/17 10:58:03;;;;;;;10.20;7.40;;;19.70;99.90;;;;;;5043478;28;20888;-71
2021/08/17 11:00:49;;;;;;;19.23;7.23;;;19.80;99.90;;;;;;5043028;28;20823;-71
2021/08/17 11:03:36;;;;;;;14.10;8.00;;;19.80;99.90;;;;;;5046080;28;20469;-70
2021/08/17 11:06:02;;;;;;;12.03;7.30;;;19.90;99.90;;;;;;5048869;28;20438;-70
2021/08/17 11:11:23;;;;;;;11.50;6.20;;;20.00;99.90;;;;;;5097266;27;20593;-71
2021/08/17 11:14:11;;;;;;;10.87;7.10;;;20.00;99.90;;;;;;5101050;28;20514;-70
2021/08/17 11:16:43;;;;;;;11.33;6.40;;;20.00;99.90;;;;;;5104837;28;20936;-70
2021/08/17 11:19:09;;;;;;;15.23;8.50;;;20.00;99.90;;;;;;5106561;28;20442;-70
2021/08/17 11:24:19;;;;;;;10.03;6.43;;;20.00;99.90;;;;;;5101323;27;20535;-71
2021/08/17 11:26:50;;;;;;;8.80;5.97;;;20.00;99.90;;;;;;5089071;28;20527;-71
2021/08/17 11:29:43;;;;;;;12.97;6.90;;;19.90;99.90;;;;;;5090720;28;20427;-71
2021/08/17 11:32:30;;;;;;;11.73;6.80;;;19.80;99.90;;;;;;5085476;28;20874;-71
2021/08/17 11:35:01;;;;;;;9.67;6.60;;;19.60;99.90;;;;;;5090002;28;20951;-71
2021/08/17 11:37:26;;;;;;;9.97;6.47;;;19.40;99.90;;;;;;5078580;28;20456;-71
2021/08/17 11:39:54;;;;;;;8.93;6.67;;;19.30;99.90;;;;;;5084009;28;20458;-71
2021/08/17 11:45:02;;;;;;;9.47;6.20;;;19.20;99.90;;;;;;5082409;27;20562;-71
2021/08/17 11:47:29;;;;;;;11.03;6.53;;;19.10;99.90;;;;;;5083444;28;20521;-70
2021/08/17 11:49:57;;;;;;;9.93;6.27;;;19.10;99.90;;;;;;5088652;28;20901;-70
2021/08/17 11:52:25;;;;;;;9.10;6.90;;;19.20;99.90;;;;;;5082661;28;20438;-70
2021/08/17 11:55:06;;;;;;;9.40;5.83;;;19.20;99.90;;;;;;5082859;28;20965;-70
2021/08/17 11:57:34;;;;;;;8.93;6.03;;;19.30;99.90;;;;;;5081912;28;20462;-70
2021/08/17 12:02:51;;;;;;;8.50;5.37;;;19.30;99.90;;;;;;5084526;27;20882;-71
2021/08/17 12:05:19;;;;;;;10.60;7.13;;;19.30;99.90;;;;;;5088028;28;20440;-71
2021/08/17 12:07:47;;;;;;;9.57;5.73;;;19.40;99.90;;;;;;5088611;28;20432;-71
2021/08/17 12:10:31;;;;;;;9.80;6.13;;;19.50;99.90;;;;;;5087539;28;20486;-71
2021/08/17 12:18:20;;;;;;;7.70;4.47;;;19.40;99.90;;;;;;5061991;28;20523;-71
2021/08/17 12:20:55;;;;;;;8.07;6.10;;;19.40;99.90;;;;;;5043928;28;20423;-71
2021/08/17 12:23:38;;;;;;;7.83;4.30;;;19.40;99.90;;;;;;5041881;28;20457;-71
2021/08/17 12:26:28;;;;;;;6.17;4.73;;;19.30;99.90;;;;;;5041686;28;20906;-71
2021/08/17 12:28:56;;;;;;;7.53;4.90;;;19.30;99.90;;;;;;5041496;28;20429;-71
2021/08/17 12:31:31;;;;;;;5.57;4.20;;;19.30;99.90;;;;;;5043988;28;20481;-71
2021/08/17 12:39:29;;;;;;;7.50;4.70;;;19.40;99.90;;;;;;5043063;28;20564;-71
2021/08/17 12:41:59;;;;;;;7.57;4.57;;;19.30;99.90;;;;;;5042884;28;20517;-71
2021/08/17 12:44:34;;;;;;;9.13;4.13;;;19.20;99.90;;;;;;5044926;28;20435;-71
2021/08/17 12:49:51;;;;;;;5.53;4.50;;;19.00;99.90;;;;;;5045372;28;20543;-70
2021/08/17 12:55:08;;;;;;;7.33;4.60;;;18.80;99.90;;;;;;5052747;28;20594;-71
2021/08/17 12:57:36;;;;;;;9.00;4.90;;;18.50;99.90;;;;;;5059520;28;20943;-71
2021/08/17 13:00:05;;;;;;;8.17;4.80;;;18.30;99.90;;;;;;5049723;28;20456;-71
2021/08/17 13:02:31;;;;;;;7.30;4.83;;;18.10;99.90;;;;;;5058007;28;21015;-71
2021/08/17 13:04:57;;;;;;;10.20;5.87;;;18.00;99.90;;;;;;5055500;28;20440;-71
2021/08/17 13:07:22;;;;;;;10.17;5.73;;;17.90;99.90;;;;;;5051764;28;20569;-71
2021/08/17 13:09:48;;;;;;;6.43;5.47;;;17.80;99.90;;;;;;5055351;28;20205;-71
2021/08/17 13:12:14;;;;;;;7.03;5.57;;;17.70;99.90;;;;;;5053338;28;20727;-71
2021/08/17 13:14:39;;;;;;;10.80;6.27;;;17.60;99.90;;;;;;5052917;28;20226;-71
2021/08/17 13:17:06;;;;;;;11.43;5.37;;;17.50;99.90;;;;;;5049265;28;20211;-71